»·PEaware :: N276ND KAVX-KSAN

N276ND :: KAVX-KSAN

FLIGHT INFORMATION

Flight Status: Arrived
Operator: Privately registered:
United States
More flights under this callsign
Pilot: Giorgi S. (28323)
Aircraft: CIRRUS SR-22
(SR22)
More flights by this aircraft type
Origin: KAVX Catalina
United States
Destination: KSAN San Diego Intl-Lindbergh
United States
More flights between these airports :: More routes between these airports
Route: +SXC V208 OCN V23 MZB
File this flight plan on PilotEdge
Remarks:
Altitude:
(Current/Filed)
5,000ft
Speed:
(Current/Filed)
170kts
Departed: 25-Jul-20 10:59 AM
Arrived: 25-Jul-20 11:47 AM
Distance/Time
Traveled:
74nm/0:47
Distance/Time
To Go:
Arrived

Flight Plot

Page will automatically refresh every two minutes.


Map Options




Map Legend


Flown Route
Filed Route
Departure Airport
Arrival Airport
Navaid (VOR, NDB)
Fix

Horizontal Profiles

Position Reports

Time Latitude Longitude Heading Altitude Ground
Speed
25-Jul-20 10:51 33.403351 -118.415840 327 1551ft 0kts
25-Jul-20 10:52 33.403351 -118.415840 327 1551ft 0kts
25-Jul-20 10:53 33.403351 -118.415840 327 1551ft 0kts
25-Jul-20 10:54 33.403351 -118.415840 327 1551ft 0kts
25-Jul-20 10:55 33.403351 -118.415840 327 1551ft 0kts
25-Jul-20 10:56 33.403422 -118.415967 290 1552ft 5kts
25-Jul-20 10:57 33.402751 -118.419590 56 1555ft 19kts
25-Jul-20 10:58 33.416270 -118.392433 70 2544ft 110kts
25-Jul-20 10:59 33.396662 -118.392305 229 3964ft 126kts
25-Jul-20 11:00 33.365499 -118.415355 153 4968ft 138kts
25-Jul-20 11:01 33.359696 -118.368921 78 4976ft 178kts
25-Jul-20 11:02 33.360700 -118.309596 108 4650ft 180kts
25-Jul-20 11:03 33.350707 -118.263676 99 5026ft 124kts
25-Jul-20 11:04 33.347384 -118.217228 93 5004ft 149kts
25-Jul-20 11:05 33.342589 -118.168377 97 4983ft 149kts
25-Jul-20 11:06 33.336128 -118.117241 97 4973ft 158kts
25-Jul-20 11:07 33.329183 -118.064632 98 5026ft 162kts
25-Jul-20 11:08 33.322050 -118.011180 98 5023ft 163kts
25-Jul-20 11:09 33.314811 -117.957006 98 5019ft 166kts
25-Jul-20 11:10 33.307513 -117.902543 99 5014ft 166kts
25-Jul-20 11:11 33.300253 -117.848774 99 5009ft 163kts
25-Jul-20 11:12 33.292994 -117.795396 99 5006ft 162kts
25-Jul-20 11:13 33.285716 -117.742103 98 5004ft 162kts
25-Jul-20 11:14 33.278536 -117.688961 98 5002ft 162kts
25-Jul-20 11:15 33.271357 -117.635660 97 5000ft 163kts
25-Jul-20 11:16 33.263905 -117.582226 97 4998ft 163kts
25-Jul-20 11:17 33.256456 -117.528473 97 4988ft 164kts
25-Jul-20 11:18 33.249059 -117.474837 97 4988ft 163kts
25-Jul-20 11:19 33.237526 -117.423236 137 4978ft 166kts
25-Jul-20 11:20 33.196143 -117.399136 156 4988ft 167kts
25-Jul-20 11:21 33.152606 -117.380297 158 4988ft 167kts
25-Jul-20 11:22 33.108812 -117.361878 158 4989ft 167kts
25-Jul-20 11:23 33.065129 -117.343555 159 4990ft 167kts
25-Jul-20 11:24 33.021396 -117.325147 160 4990ft 167kts
25-Jul-20 11:25 32.977438 -117.306771 160 4991ft 168kts
25-Jul-20 11:26 32.933425 -117.288329 160 4991ft 168kts
25-Jul-20 11:27 32.889361 -117.269301 161 4990ft 168kts
25-Jul-20 11:28 32.844864 -117.252212 163 4988ft 168kts
25-Jul-20 11:29 32.804121 -117.228514 107 5029ft 167kts
25-Jul-20 11:30 32.794762 -117.173243 101 4986ft 170kts
25-Jul-20 11:31 32.784813 -117.118368 101 4991ft 169kts
25-Jul-20 11:32 32.774547 -117.064621 101 4993ft 166kts
25-Jul-20 11:33 32.764621 -117.011149 101 4994ft 165kts
25-Jul-20 11:34 32.754432 -116.958132 101 4995ft 164kts
25-Jul-20 11:35 32.744331 -116.905322 103 4993ft 164kts
25-Jul-20 11:36 32.711825 -116.883923 193 4999ft 170kts
25-Jul-20 11:37 32.671667 -116.906869 260 4701ft 151kts
25-Jul-20 11:38 32.673034 -116.946783 290 4207ft 132kts
25-Jul-20 11:39 32.683922 -116.985644 287 3622ft 123kts
25-Jul-20 11:40 32.692514 -117.021861 284 3153ft 110kts
25-Jul-20 11:41 32.701574 -117.057101 288 2617ft 112kts
25-Jul-20 11:42 32.710344 -117.091223 285 2044ft 104kts
25-Jul-20 11:43 32.717537 -117.123020 286 1263ft 98kts
25-Jul-20 11:44 32.724902 -117.153905 287 642ft 93kts
25-Jul-20 11:45 32.731785 -117.182329 287 22ft 73kts
25-Jul-20 11:46 32.734198 -117.186367 107 21ft 26kts
25-Jul-20 11:47 32.734047 -117.179443 248 21ft 5kts
25-Jul-20 11:48 32.733976 -117.179519 203 21ft 0kts

Navigation Log

Ident Type
Flight plan parsing failed, navigation log unavailable